Terminal Aerodrome Forecast
Issued by NWS

Home | Current Version | Previous Version | Text Only | Print | Product List | Glossary On
Versions: 1 2 3 4 5 6 7 8 9 10 11 12 13 14
000
FTUS44 KLZK 301737
TAFPBF
TAF
KPBF 301737Z 3018/3118 07006KT P6SM SCT050
     FM310000 05004KT P6SM BKN250
      TEMPO 3110/3114 5SM BR
     FM311500 04005KT P6SM SCT250=

USA.gov is the U.S. government's official web portal to all federal, state and local government web resources and services.